createdAt,value
2022-11-24T00:01:20.391Z,99024.34
2022-11-24T00:03:58.566Z,99031.81
2022-11-24T00:06:26.292Z,99024.69
2022-11-24T00:08:53.976Z,99026.28
2022-11-24T00:11:23.710Z,99023.72
2022-11-24T00:13:51.090Z,99032.22
2022-11-24T00:16:27.163Z,99034.34
2022-11-24T00:18:56.340Z,99038.31
2022-11-24T00:21:23.835Z,99046.56
2022-11-24T00:23:51.593Z,99048.69
2022-11-24T00:26:21.095Z,99050.59
2022-11-24T00:28:49.838Z,99049.38
2022-11-24T00:31:24.438Z,99056.25
2022-11-24T00:33:53.085Z,99059.44
2022-11-24T00:36:21.884Z,99064.75
2022-11-24T00:38:53.085Z,99067.16
2022-11-24T00:41:20.193Z,99063.63
2022-11-24T00:43:46.964Z,99069.97
2022-11-24T00:46:14.074Z,99071.94
2022-11-24T00:48:41.472Z,99070.13
2022-11-24T00:51:10.960Z,99064.75
2022-11-24T00:53:38.891Z,99076.63
2022-11-24T00:56:06.834Z,99079.56
2022-11-24T00:58:34.815Z,99071.19
2022-11-24T01:01:11.664Z,99084.72
2022-11-24T01:03:39.136Z,99096.41
2022-11-24T01:06:15.114Z,99097.56
2022-11-24T01:08:42.615Z,99110.69
2022-11-24T01:11:14.270Z,99109.81
2022-11-24T01:13:52.239Z,99103.03
2022-11-24T01:16:22.101Z,99101.44
2022-11-24T01:18:49.507Z,99103.56
2022-11-24T01:21:17.501Z,99102.16
2022-11-24T01:23:44.487Z,99107.91
2022-11-24T01:26:14.524Z,99111.91
2022-11-24T01:28:46.593Z,99106.75
2022-11-24T01:31:15.916Z,99118.03
2022-11-24T01:33:43.248Z,99110.94
2022-11-24T01:36:10.223Z,99110.56
2022-11-24T01:38:37.058Z,99098.50
2022-11-24T01:41:08.500Z,99105.44
2022-11-24T01:43:36.940Z,99100.66
2022-11-24T01:46:41.403Z,99113.53
2022-11-24T01:49:20.283Z,99116.91
2022-11-24T01:51:54.831Z,99119.16
2022-11-24T01:54:26.607Z,99130.06
2022-11-24T01:56:58.719Z,99132.63
2022-11-24T01:59:26.780Z,99131.66
2022-11-24T02:01:54.938Z,99131.66
2022-11-24T02:04:25.957Z,99132.00
2022-11-24T02:06:54.404Z,99130.75
2022-11-24T02:09:27.459Z,99133.91
2022-11-24T02:11:55.463Z,99129.91
2022-11-24T02:14:24.065Z,99129.91
2022-11-24T02:16:51.812Z,99125.75
2022-11-24T02:19:33.598Z,99125.31
2022-11-24T02:22:01.662Z,99115.19
2022-11-24T02:25:06.405Z,99126.50
2022-11-24T02:27:33.359Z,99119.84
2022-11-24T02:30:00.340Z,99110.19
2022-11-24T02:32:28.470Z,99105.66
2022-11-24T02:35:07.660Z,99112.13
2022-11-24T02:37:34.490Z,99115.19
2022-11-24T02:40:01.309Z,99112.88
2022-11-24T02:42:36.514Z,99117.88
2022-11-24T02:45:03.734Z,99115.50
2022-11-24T02:47:31.399Z,99117.00
2022-11-24T02:49:58.247Z,99120.59
2022-11-24T02:52:25.039Z,99115.22
2022-11-24T02:54:51.837Z,99110.25
2022-11-24T02:57:18.635Z,99118.50
2022-11-24T02:59:46.735Z,99119.31
2022-11-24T03:02:13.602Z,99111.84
2022-11-24T03:04:40.430Z,99113.88
2022-11-24T03:07:07.430Z,99120.84
2022-11-24T03:09:34.237Z,99128.19
2022-11-24T03:12:01.015Z,99127.81
2022-11-24T03:14:27.805Z,99129.84
2022-11-24T03:16:54.622Z,99125.69
2022-11-24T03:19:21.413Z,99129.25
2022-11-24T03:21:48.172Z,99129.25
2022-11-24T03:24:14.991Z,99135.38
2022-11-24T03:26:42.329Z,99127.03
2022-11-24T03:29:09.423Z,99132.75
2022-11-24T03:31:36.248Z,99128.19
2022-11-24T03:34:03.295Z,99130.16
2022-11-24T03:36:30.101Z,99136.66
2022-11-24T03:38:56.908Z,99144.75
2022-11-24T03:41:23.688Z,99146.31
2022-11-24T03:43:50.425Z,99153.06
2022-11-24T03:46:17.625Z,99146.53
2022-11-24T03:48:44.462Z,99157.38
2022-11-24T03:51:11.646Z,99155.19
2022-11-24T03:53:38.470Z,99161.72
2022-11-24T03:56:05.484Z,99159.78
2022-11-24T03:58:32.426Z,99168.09
2022-11-24T04:00:59.305Z,99175.59
2022-11-24T04:03:27.344Z,99167.06
2022-11-24T04:05:54.280Z,99178.50
2022-11-24T04:08:21.197Z,99172.31
2022-11-24T04:10:53.048Z,99178.47
2022-11-24T04:13:21.817Z,99171.94
2022-11-24T04:15:48.752Z,99185.41
2022-11-24T04:18:15.624Z,99183.47
2022-11-24T04:20:42.920Z,99168.47
2022-11-24T04:23:10.987Z,99178.66
2022-11-24T04:25:37.773Z,99181.63
2022-11-24T04:28:04.752Z,99192.69
2022-11-24T04:30:31.871Z,99190.94
2022-11-24T04:32:59.053Z,99189.75
2022-11-24T04:35:25.854Z,99189.56
2022-11-24T04:37:52.672Z,99199.25
2022-11-24T04:40:20.515Z,99198.47
2022-11-24T04:42:56.695Z,99205.56
2022-11-24T04:45:24.128Z,99214.31
2022-11-24T04:47:51.164Z,99225.56
2022-11-24T04:50:18.603Z,99225.38
2022-11-24T04:52:45.551Z,99232.09
2022-11-24T04:55:12.447Z,99244.38
2022-11-24T04:57:39.649Z,99240.53
2022-11-24T05:00:08.097Z,99256.53
2022-11-24T05:02:36.063Z,99260.06
2022-11-24T05:05:02.957Z,99267.59
2022-11-24T05:07:30.521Z,99264.84
2022-11-24T05:10:15.805Z,99271.31
2022-11-24T05:12:47.050Z,99277.03
2022-11-24T05:15:16.824Z,99280.00
2022-11-24T05:17:43.566Z,99288.47
2022-11-24T05:20:10.612Z,99281.41
2022-11-24T05:22:37.412Z,99289.22
2022-11-24T05:25:04.831Z,99285.03
2022-11-24T05:27:31.610Z,99291.16
2022-11-24T05:29:58.537Z,99298.97
2022-11-24T05:32:26.914Z,99295.44
2022-11-24T05:34:54.948Z,99292.34
2022-11-24T05:37:22.162Z,99295.53
2022-11-24T05:39:48.939Z,99300.69
2022-11-24T05:42:34.199Z,99303.59
2022-11-24T05:45:01.101Z,99296.34
2022-11-24T05:47:30.036Z,99303.09
2022-11-24T05:49:56.913Z,99301.16
2022-11-24T05:52:23.859Z,99305.50
2022-11-24T05:54:50.588Z,99311.78
2022-11-24T05:57:18.099Z,99303.19
2022-11-24T05:59:45.647Z,99310.66
2022-11-24T06:02:14.259Z,99319.00
2022-11-24T06:04:41.368Z,99316.03
2022-11-24T06:07:09.330Z,99318.44
2022-11-24T06:09:40.290Z,99315.25
2022-11-24T06:12:07.963Z,99320.81
2022-11-24T06:14:35.534Z,99319.22
2022-11-24T06:17:03.369Z,99324.75
2022-11-24T06:19:30.198Z,99334.34
2022-11-24T06:22:00.020Z,99336.22
2022-11-24T06:24:27.855Z,99342.34
2022-11-24T06:26:54.642Z,99335.66
2022-11-24T06:29:22.551Z,99348.81
2022-11-24T06:31:49.410Z,99342.97
2022-11-24T06:34:16.178Z,99352.88
2022-11-24T06:36:45.208Z,99360.69
2022-11-24T06:39:11.973Z,99362.56
2022-11-24T06:41:38.723Z,99357.22
2022-11-24T06:44:05.732Z,99357.47
2022-11-24T06:46:33.019Z,99357.97
2022-11-24T06:49:00.658Z,99365.31
2022-11-24T06:51:28.070Z,99370.25
2022-11-24T06:53:55.452Z,99377.56
2022-11-24T06:56:22.542Z,99369.84
2022-11-24T06:58:51.229Z,99372.25
2022-11-24T07:01:27.028Z,99370.25
2022-11-24T07:03:55.465Z,99388.91
2022-11-24T07:06:23.957Z,99392.34
2022-11-24T07:08:51.518Z,99396.25
2022-11-24T07:11:23.562Z,99404.53
2022-11-24T07:13:56.492Z,99403.97
2022-11-24T07:16:27.053Z,99412.63
2022-11-24T07:18:55.228Z,99410.91
2022-11-24T07:21:23.693Z,99397.22
2022-11-24T07:23:52.009Z,99402.25
2022-11-24T07:26:19.641Z,99402.50
2022-11-24T07:28:46.971Z,99406.75
2022-11-24T07:31:15.896Z,99414.75
2022-11-24T07:33:42.734Z,99420.25
2022-11-24T07:36:10.082Z,99420.41
2022-11-24T07:38:36.980Z,99416.50
2022-11-24T07:41:08.540Z,99422.47
2022-11-24T07:43:36.914Z,99428.31
2022-11-24T07:46:05.528Z,99424.41
2022-11-24T07:48:32.491Z,99423.50
2022-11-24T07:51:04.568Z,99433.81
2022-11-24T07:53:33.243Z,99428.31
2022-11-24T07:56:03.209Z,99434.91
2022-11-24T07:58:33.133Z,99429.75
2022-11-24T08:01:00.617Z,99431.75
2022-11-24T08:03:27.969Z,99437.72
2022-11-24T08:06:23.180Z,99428.38
2022-11-24T08:08:48.962Z,99446.34
2022-11-24T08:11:18.288Z,99442.03
2022-11-24T08:13:46.000Z,99440.97
2022-11-24T08:16:18.287Z,99446.56
2022-11-24T08:18:55.516Z,99442.22
2022-11-24T08:21:23.663Z,99450.59
2022-11-24T08:23:54.192Z,99452.28
2022-11-24T08:26:21.010Z,99451.00
2022-11-24T08:28:50.705Z,99467.53
2022-11-24T08:31:19.244Z,99467.59
2022-11-24T08:33:46.782Z,99455.38
2022-11-24T08:36:18.527Z,99463.28
2022-11-24T08:38:47.260Z,99470.31
2022-11-24T08:41:18.246Z,99480.00
2022-11-24T08:43:45.293Z,99485.31
2022-11-24T08:46:17.615Z,99488.09
2022-11-24T08:48:48.954Z,99488.59
2022-11-24T08:51:18.332Z,99497.91
2022-11-24T08:53:45.780Z,99503.44
2022-11-24T08:56:14.036Z,99506.84
2022-11-24T08:58:41.814Z,99502.28
2022-11-24T09:01:30.318Z,99511.19
2022-11-24T09:03:58.795Z,99511.00
2022-11-24T09:06:30.299Z,99518.03
2022-11-24T09:08:57.626Z,99506.44
2022-11-24T09:11:25.835Z,99519.34
2022-11-24T09:13:53.110Z,99509.31
2022-11-24T09:16:22.610Z,99520.47
2022-11-24T09:18:54.767Z,99510.84
2022-11-24T09:21:22.293Z,99513.44
2022-11-24T09:23:51.494Z,99522.81
2022-11-24T09:26:30.465Z,99525.84
2022-11-24T09:28:58.353Z,99508.78
2022-11-24T09:31:28.135Z,99518.38
2022-11-24T09:34:00.787Z,99523.19
2022-11-24T09:36:28.472Z,99519.25
2022-11-24T09:38:56.468Z,99517.28
2022-11-24T09:41:46.140Z,99524.69
2022-11-24T09:45:00.752Z,99512.13
2022-11-24T09:47:46.312Z,99520.31
2022-11-24T09:50:22.356Z,99506.59
2022-11-24T09:53:13.402Z,99521.88
2022-11-24T09:55:50.107Z,99516.78
2022-11-24T09:58:38.677Z,99520.06
2022-11-24T10:01:17.279Z,99516.94
2022-11-24T10:03:52.055Z,99518.44
2022-11-24T10:06:31.797Z,99521.50
2022-11-24T10:09:40.577Z,99502.63
2022-11-24T10:12:25.840Z,99510.66
2022-11-24T10:15:21.772Z,99512.34
2022-11-24T10:18:13.252Z,99502.75
2022-11-24T10:20:51.193Z,99510.34
2022-11-24T10:23:41.647Z,99509.75
2022-11-24T10:26:40.117Z,99509.56
2022-11-24T10:29:53.231Z,99501.19
2022-11-24T10:32:23.435Z,99505.56
2022-11-24T10:34:50.912Z,99496.16
2022-11-24T10:37:35.598Z,99499.13
2022-11-24T10:40:10.843Z,99499.56
2022-11-24T10:42:49.184Z,99505.97
2022-11-24T10:45:22.961Z,99504.56
2022-11-24T10:47:50.771Z,99510.97
2022-11-24T10:50:22.925Z,99505.56
2022-11-24T10:53:05.669Z,99499.13
2022-11-24T10:55:52.673Z,99508.16
2022-11-24T10:58:36.039Z,99504.69
2022-11-24T11:01:13.755Z,99510.09
2022-11-24T11:03:58.238Z,99521.19
2022-11-24T11:06:31.391Z,99520.19
2022-11-24T11:09:19.949Z,99518.16
2022-11-24T11:11:49.379Z,99516.97
2022-11-24T11:14:35.635Z,99516.94
2022-11-24T11:17:03.529Z,99516.34
2022-11-24T11:19:50.505Z,99516.47
2022-11-24T11:22:35.176Z,99508.38
2022-11-24T11:25:10.701Z,99495.84
2022-11-24T11:27:39.458Z,99499.50
2022-11-24T11:36:17.540Z,99492.34
2022-11-24T11:38:47.113Z,99511.03
2022-11-24T11:41:37.161Z,99506.19
2022-11-24T11:44:23.003Z,99506.31
2022-11-24T11:46:49.811Z,99515.72
2022-11-24T11:49:16.783Z,99520.28
2022-11-24T11:51:53.563Z,99522.69
2022-11-24T11:54:48.094Z,99528.19
2022-11-24T11:57:53.666Z,99530.25
2022-11-24T12:00:22.392Z,99536.06
2022-11-24T12:03:26.888Z,99530.25
2022-11-24T12:06:14.303Z,99522.66
2022-11-24T12:09:22.701Z,99529.50
2022-11-24T12:12:01.381Z,99532.22
2022-11-24T12:14:58.513Z,99530.88
2022-11-24T12:17:54.489Z,99536.53
2022-11-24T12:20:33.334Z,99532.34
2022-11-24T12:23:27.459Z,99541.22
2022-11-24T12:26:14.492Z,99541.16
2022-11-24T12:29:10.470Z,99546.72
2022-11-24T12:31:45.410Z,99543.69
2022-11-24T12:34:27.383Z,99545.34
2022-11-24T12:37:18.961Z,99537.19
2022-11-24T12:39:54.619Z,99548.75
2022-11-24T12:42:21.413Z,99539.78
2022-11-24T12:45:30.178Z,99554.19
2022-11-24T12:48:19.935Z,99556.19
2022-11-24T12:50:47.215Z,99554.28
2022-11-24T12:53:34.736Z,99567.34
2022-11-24T12:56:30.720Z,99567.34
2022-11-24T12:59:09.595Z,99564.94
2022-11-24T13:01:47.284Z,99569.00
2022-11-24T13:04:29.686Z,99578.06
2022-11-24T13:07:17.586Z,99573.28
2022-11-24T13:10:34.661Z,99573.66
2022-11-24T13:13:10.462Z,99573.28
2022-11-24T13:19:02.745Z,99576.94
2022-11-24T13:21:42.964Z,99585.28
2022-11-24T13:24:20.061Z,99585.13
2022-11-24T13:26:50.200Z,99593.75
2022-11-24T13:29:52.188Z,99596.88
2022-11-24T13:32:19.121Z,99600.06
2022-11-24T13:34:46.015Z,99587.63
2022-11-24T13:37:31.808Z,99589.41
2022-11-24T13:40:14.680Z,99594.31
2022-11-24T13:42:57.402Z,99594.91
2022-11-24T13:45:49.893Z,99594.16
2022-11-24T13:48:20.098Z,99597.13
2022-11-24T13:50:54.215Z,99601.91
2022-11-24T13:53:45.379Z,99593.50
2022-11-24T13:56:18.015Z,99606.66
2022-11-24T13:58:52.182Z,99609.44
2022-11-24T14:01:22.684Z,99604.28
2022-11-24T14:07:02.407Z,99613.84
2022-11-24T14:09:32.073Z,99622.09
2022-11-24T14:12:24.084Z,99628.22
2022-11-24T14:14:53.876Z,99629.53
2022-11-24T14:17:27.854Z,99634.69
2022-11-24T14:19:56.617Z,99634.69
2022-11-24T14:22:41.519Z,99638.56
2022-11-24T14:25:20.485Z,99635.09
2022-11-24T14:27:47.463Z,99648.69
2022-11-24T14:30:14.178Z,99643.13
2022-11-24T14:33:01.632Z,99641.28
2022-11-24T14:35:34.232Z,99629.94
2022-11-24T14:38:04.434Z,99639.97
2022-11-24T14:40:41.078Z,99641.66
2022-11-24T14:43:19.654Z,99638.84
2022-11-24T14:45:52.986Z,99639.47
2022-11-24T14:48:23.405Z,99638.13
2022-11-24T14:50:50.784Z,99645.69
2022-11-24T14:53:25.807Z,99631.41
2022-11-24T14:56:10.926Z,99645.56
2022-11-24T14:58:42.018Z,99648.84
2022-11-24T15:01:19.975Z,99642.47
2022-11-24T15:04:11.026Z,99642.78
2022-11-24T15:06:41.184Z,99643.22
2022-11-24T15:09:20.027Z,99653.44
2022-11-24T15:11:46.994Z,99645.69
2022-11-24T15:14:34.206Z,99644.03
2022-11-24T15:17:01.642Z,99659.81
2022-11-24T15:19:34.247Z,99651.09
2022-11-24T15:22:03.517Z,99654.84
2022-11-24T15:24:31.579Z,99660.94
2022-11-24T15:27:01.610Z,99654.34
2022-11-24T15:29:28.491Z,99654.97
2022-11-24T15:31:55.364Z,99654.34
2022-11-24T15:34:22.273Z,99659.97
2022-11-24T15:36:57.122Z,99665.75
2022-11-24T15:39:23.972Z,99654.63
2022-11-24T15:41:50.819Z,99653.63
2022-11-24T15:44:17.677Z,99663.38
2022-11-24T15:46:44.543Z,99652.84
2022-11-24T15:49:11.506Z,99658.00
2022-11-24T15:51:43.281Z,99662.88
2022-11-24T15:54:14.819Z,99661.75
2022-11-24T15:56:42.162Z,99661.28
2022-11-24T15:59:20.685Z,99672.41
2022-11-24T16:01:50.714Z,99669.31
2022-11-24T16:04:17.800Z,99683.19
2022-11-24T16:06:45.993Z,99682.72
2022-11-24T16:09:17.381Z,99691.91
2022-11-24T16:11:44.194Z,99686.38
2022-11-24T16:14:12.084Z,99683.19
2022-11-24T16:16:40.747Z,99680.59
2022-11-24T16:19:08.947Z,99677.22
2022-11-24T16:21:36.018Z,99676.16
2022-11-24T16:24:02.908Z,99684.97
2022-11-24T16:26:29.685Z,99687.72
2022-11-24T16:28:56.457Z,99695.28
2022-11-24T16:31:24.148Z,99700.44
2022-11-24T16:33:52.161Z,99705.00
2022-11-24T16:36:19.080Z,99701.59
2022-11-24T16:38:45.850Z,99706.19
2022-11-24T16:41:13.131Z,99717.81
2022-11-24T16:43:40.176Z,99717.97
2022-11-24T16:46:17.248Z,99720.13
2022-11-24T16:48:45.627Z,99727.25
2022-11-24T16:51:13.683Z,99724.38
2022-11-24T16:53:40.985Z,99726.16
2022-11-24T16:56:08.809Z,99718.53
2022-11-24T16:58:38.879Z,99732.56
2022-11-24T17:01:07.388Z,99737.72
2022-11-24T17:03:37.321Z,99738.34
2022-11-24T17:06:06.732Z,99740.78
2022-11-24T17:08:39.388Z,99738.19
2022-11-24T17:11:17.880Z,99746.25
2022-11-24T17:13:46.009Z,99744.97
2022-11-24T17:16:15.058Z,99744.66
2022-11-24T17:18:42.358Z,99748.84
2022-11-24T17:21:16.780Z,99749.63
2022-11-24T17:23:44.206Z,99759.78
2022-11-24T17:26:16.693Z,99750.56
2022-11-24T17:28:44.044Z,99772.06
2022-11-24T17:31:32.304Z,99777.28
2022-11-24T17:34:00.547Z,99783.50
2022-11-24T17:36:29.826Z,99780.13
2022-11-24T17:38:58.601Z,99786.66
2022-11-24T17:41:25.401Z,99785.84
2022-11-24T17:43:56.760Z,99786.00
2022-11-24T17:46:28.515Z,99780.84
2022-11-24T17:48:55.912Z,99781.50
2022-11-24T17:51:24.939Z,99785.69
2022-11-24T17:53:53.577Z,99787.44
2022-11-24T17:56:27.870Z,99789.09
2022-11-24T17:58:56.156Z,99796.66
2022-11-24T18:01:23.744Z,99800.22
2022-11-24T18:03:53.719Z,99797.97
2022-11-24T18:06:25.443Z,99794.81
2022-11-24T18:08:53.264Z,99790.94
2022-11-24T18:11:30.218Z,99803.22
2022-11-24T18:14:02.111Z,99803.22
2022-11-24T18:16:32.206Z,99808.00
2022-11-24T18:19:08.688Z,99809.28
2022-11-24T18:21:37.768Z,99808.56
2022-11-24T18:24:04.705Z,99801.47
2022-11-24T18:26:31.576Z,99804.69
2022-11-24T18:29:03.142Z,99807.88
2022-11-24T18:31:45.786Z,99806.38
2022-11-24T18:34:12.581Z,99810.41
2022-11-24T18:36:39.420Z,99808.06
2022-11-24T18:39:08.093Z,99809.31
2022-11-24T18:41:35.623Z,99800.88
2022-11-24T18:44:03.179Z,99796.00
2022-11-24T18:46:30.055Z,99795.28
2022-11-24T18:49:00.092Z,99806.84
2022-11-24T18:51:27.520Z,99812.66
2022-11-24T18:53:54.818Z,99815.66
2022-11-24T18:56:21.600Z,99819.66
2022-11-24T18:58:48.396Z,99830.00
2022-11-24T19:01:20.733Z,99831.94
2022-11-24T19:03:49.941Z,99830.63
2022-11-24T19:06:19.685Z,99824.16
2022-11-24T19:08:47.133Z,99824.16
2022-11-24T19:11:25.944Z,99833.50
2022-11-24T19:13:53.074Z,99830.53
2022-11-24T19:16:22.762Z,99829.19
2022-11-24T19:18:53.952Z,99838.38
2022-11-24T19:21:21.878Z,99838.81
2022-11-24T19:23:49.413Z,99844.59
2022-11-24T19:26:16.582Z,99850.22
2022-11-24T19:28:43.656Z,99844.25
2022-11-24T19:31:13.062Z,99849.34
2022-11-24T19:33:40.217Z,99859.66
2022-11-24T19:36:19.661Z,99860.44
2022-11-24T19:38:51.418Z,99871.38
2022-11-24T19:41:22.017Z,99870.69
2022-11-24T19:43:49.197Z,99880.66
2022-11-24T19:46:17.837Z,99879.25
2022-11-24T19:48:47.344Z,99881.22
2022-11-24T19:51:19.515Z,99877.81
2022-11-24T19:53:46.670Z,99877.97
2022-11-24T19:56:19.127Z,99885.88
2022-11-24T19:58:47.076Z,99884.28
2022-11-24T20:01:18.681Z,99885.47
2022-11-24T20:03:47.670Z,99897.19
2022-11-24T20:06:15.565Z,99901.38
2022-11-24T20:08:43.334Z,99908.94
2022-11-24T20:11:16.082Z,99915.28
2022-11-24T20:13:44.770Z,99916.88
2022-11-24T20:16:17.635Z,99931.38
2022-11-24T20:18:46.459Z,99920.25
2022-11-24T20:21:15.263Z,99920.72
2022-11-24T20:23:43.155Z,99923.31
2022-11-24T20:26:13.175Z,99920.72
2022-11-24T20:28:40.242Z,99931.69
2022-11-24T20:31:11.444Z,99934.84
2022-11-24T20:33:39.390Z,99940.03
2022-11-24T20:36:19.821Z,99943.31
2022-11-24T20:38:48.467Z,99940.72
2022-11-24T20:41:18.102Z,99933.50
2022-11-24T20:43:46.422Z,99937.88
2022-11-24T20:46:19.928Z,99938.09
2022-11-24T20:48:46.945Z,99947.22
2022-11-24T20:51:21.545Z,99953.75
2022-11-24T20:53:49.602Z,99960.34
2022-11-24T20:56:19.127Z,99954.38
2022-11-24T20:58:47.027Z,99948.19
2022-11-24T21:01:21.996Z,99943.91
2022-11-24T21:03:56.585Z,99954.97
2022-11-24T21:06:24.067Z,99951.22
2022-11-24T21:08:51.113Z,99957.19
2022-11-24T21:11:19.112Z,99954.63
2022-11-24T21:13:47.590Z,99957.38
2022-11-24T21:16:23.835Z,99948.19
2022-11-24T21:18:52.971Z,99958.00
2022-11-24T21:21:24.548Z,99954.63
2022-11-24T21:23:51.963Z,99950.72
2022-11-24T21:26:19.583Z,99953.13
2022-11-24T21:28:47.450Z,99957.13
2022-11-24T21:31:16.972Z,99957.91
2022-11-24T21:33:49.421Z,99961.13
2022-11-24T21:36:19.212Z,99956.75
2022-11-24T21:38:59.407Z,99958.38
2022-11-24T21:41:27.912Z,99961.59
2022-11-24T21:43:58.332Z,99967.19
2022-11-24T21:46:25.488Z,99961.44
2022-11-24T21:48:52.227Z,99968.38
2022-11-24T21:51:21.013Z,99970.47
2022-11-24T21:53:48.622Z,99964.50
2022-11-24T21:56:18.318Z,99966.13
2022-11-24T21:58:55.626Z,99974.22
2022-11-24T22:01:24.768Z,99979.19
2022-11-24T22:03:51.810Z,99979.38
2022-11-24T22:06:20.148Z,99989.28
2022-11-24T22:08:50.435Z,99990.44
2022-11-24T22:11:20.094Z,99993.66
2022-11-24T22:13:47.311Z,99984.47
2022-11-24T22:16:17.001Z,99979.19
2022-11-24T22:18:44.845Z,99989.75
2022-11-24T22:21:16.770Z,99987.72
2022-11-24T22:23:44.364Z,99980.28
2022-11-24T22:26:17.124Z,99977.09
2022-11-24T22:28:45.256Z,99973.88
2022-11-24T22:31:21.240Z,99970.88
2022-11-24T22:33:49.514Z,99971.50
2022-11-24T22:36:17.950Z,99976.84
2022-11-24T22:38:44.750Z,99983.91
2022-11-24T22:41:14.110Z,99987.81
2022-11-24T22:43:42.270Z,99989.47
2022-11-24T22:46:12.204Z,99987.59
2022-11-24T22:48:42.365Z,99997.31
2022-11-24T22:51:16.969Z,100003.44
2022-11-24T22:53:48.766Z,100005.34
2022-11-24T22:56:16.499Z,100003.06
2022-11-24T22:58:43.520Z,100011.75
2022-11-24T23:01:21.721Z,100022.72
2022-11-24T23:03:49.445Z,100014.56
2022-11-24T23:06:21.454Z,100016.16
2022-11-24T23:08:48.763Z,100013.03
2022-11-24T23:11:18.062Z,100014.50
2022-11-24T23:13:45.091Z,100021.53
2022-11-24T23:16:14.901Z,100026.69
2022-11-24T23:18:42.633Z,100021.19
2022-11-24T23:21:16.693Z,100019.06
2022-11-24T23:23:44.367Z,100022.09
2022-11-24T23:26:20.082Z,100022.53
2022-11-24T23:28:46.925Z,100029.66
2022-11-24T23:31:16.335Z,100023.28
2022-11-24T23:33:43.507Z,100033.66
2022-11-24T23:36:15.716Z,100023.06
2022-11-24T23:38:42.642Z,100027.63
2022-11-24T23:41:12.936Z,100022.63
2022-11-24T23:43:41.615Z,100024.88
2022-11-24T23:46:12.278Z,100027.06
2022-11-24T23:48:39.782Z,100034.81
2022-11-24T23:51:12.759Z,100032.78
2022-11-24T23:53:39.479Z,100021.72
2022-11-24T23:56:06.551Z,100027.22
2022-11-24T23:58:33.962Z,100022.06
